Irene, SD (57037)

11:37 AM CDT on August 20, 2014 (GMT -0500)
Turkey Ridge | Change Station
CLOSE
Current Station
Personal Weather Station
Location: Freeman, SD
Elevation: 1644 ft
Nearby Weather Stations

Elev 1644 ft 43.26 °N, 97.36 °W | Updated 6 minutes ago

Clear
Clear
75.5 °F
Feels Like 76 °F
N
15.0
Wind Variable Wind from South
Gusts 19.0 mph

Today
High -- | Low -- °F
--% Chance of Precip.
Yesterday
High -- | Low -- °F
Precip. -- in
6:40 AM 8:23 PM
Waning Crescent, 20% visible
Pressure 29.77 in
Visibility 10.0 miles
Clouds Clear
Heat Index 76 °F
Dew Point 68 °F
Humidity 78%
Rainfall 0.21 in
Snow Depth Not available.
UV 7 out of 12
Pollen 8.50 out of 12
Air Quality Not available.
Flu Activity Not available.
METAR KYKN 201615Z AUTO 15015G23KT 10SM CLR 25/21 A2977 RMK AO1 LTG DSNT SE

More Conditions Fewer Conditions

Pressure 29.77 in
Visibility 10.0 miles
Clouds Clear
Heat Index 76 °F
Dew Point 68 °F
Humidity 78%
Rainfall 0.21 in
Snow Depth Not available.
UV 7 out of 12
Pollen 8.50 out of 12
Air Quality Not available.
Flu Activity Not available.
METAR KYKN 201615Z AUTO 15015G23KT 10SM CLR 25/21 A2977 RMK AO1 LTG DSNT SE

More Conditions Fewer Conditions

10-Day Weather Forecast

Almanac

Astronomy

Aug. 20, 2014 Rise Set
Actual Time 6:40 AM CDT 8:23 PM CDT
Civil Twilight 6:10 AM CDT 8:54 PM CDT
Nautical Twilight 5:33 AM CDT 9:30 PM CDT
Astronomical Twilight 4:53 AM CDT 10:10 PM CDT
Moon 2:18 AM CDT 5:12 PM CDT
Length of Visible Light 14h 43m
Length of Day
13h 43m
Tomorrow will be 2m 41s shorter.
Waning Crescent, 20% of the Moon is Illuminated
Today
Waning Crescent
Aug 25
New
Sep 2
First Quarter
Sep 8
Full
Sep 15
Last Quarter

Today's Extremes

State Highs State Lows

Community

WunderPhotos

Upload Photos

1,745,689 photos uploaded!

Nearby

Snow Depth

Station Depth Elevation
North Rapid Creek 0 in 6130 ft
Blind Park 0 in 6890 ft

Earthquake Activity

City Distance Mag. Time & Date
No recent earthquake activity has been reported nearby.
Minimum magnitude displayed is 2.5.

Coastal Water Temperatures

Place Temperature
No Stations Reporting

Nearby Weather Stations